sensor_id;sensor_type;location;lat;lon;timestamp;temperature;humidity
27226;DHT22;14732;51.074;3.788;2023-09-30T00:00:43;14.60;99.90
27226;DHT22;14732;51.074;3.788;2023-09-30T00:03:09;14.60;99.90
27226;DHT22;14732;51.074;3.788;2023-09-30T00:05:37;14.50;99.90
27226;DHT22;14732;51.074;3.788;2023-09-30T00:08:03;14.50;99.90
27226;DHT22;14732;51.074;3.788;2023-09-30T00:10:29;14.50;99.90
27226;DHT22;14732;51.074;3.788;2023-09-30T00:12:58;14.50;99.90
27226;DHT22;14732;51.074;3.788;2023-09-30T00:15:24;14.50;99.90
27226;DHT22;14732;51.074;3.788;2023-09-30T00:17:50;14.40;99.90
27226;DHT22;14732;51.074;3.788;2023-09-30T00:20:16;14.50;99.90
27226;DHT22;14732;51.074;3.788;2023-09-30T00:22:42;14.40;99.90
27226;DHT22;14732;51.074;3.788;2023-09-30T00:25:08;14.40;99.90
27226;DHT22;14732;51.074;3.788;2023-09-30T00:27:35;14.50;99.90
27226;DHT22;14732;51.074;3.788;2023-09-30T00:30:01;14.50;99.90
27226;DHT22;14732;51.074;3.788;2023-09-30T00:32:26;14.50;99.90
27226;DHT22;14732;51.074;3.788;2023-09-30T00:34:52;14.50;99.90
27226;DHT22;14732;51.074;3.788;2023-09-30T00:37:19;14.50;99.90
27226;DHT22;14732;51.074;3.788;2023-09-30T00:39:45;14.50;99.90
27226;DHT22;14732;51.074;3.788;2023-09-30T00:42:10;14.50;99.90
27226;DHT22;14732;51.074;3.788;2023-09-30T00:44:36;14.50;99.90
27226;DHT22;14732;51.074;3.788;2023-09-30T00:47:02;14.40;99.90
27226;DHT22;14732;51.074;3.788;2023-09-30T00:49:28;14.40;99.90
27226;DHT22;14732;51.074;3.788;2023-09-30T00:51:55;14.40;99.90
27226;DHT22;14732;51.074;3.788;2023-09-30T00:54:22;14.40;99.90
27226;DHT22;14732;51.074;3.788;2023-09-30T00:56:52;14.40;99.90
27226;DHT22;14732;51.074;3.788;2023-09-30T00:59:21;14.50;99.90
27226;DHT22;14732;51.074;3.788;2023-09-30T01:01:47;14.40;99.90
27226;DHT22;14732;51.074;3.788;2023-09-30T01:04:13;14.40;99.90
27226;DHT22;14732;51.074;3.788;2023-09-30T01:06:40;14.30;99.90
27226;DHT22;14732;51.074;3.788;2023-09-30T01:09:07;14.20;99.90
27226;DHT22;14732;51.074;3.788;2023-09-30T01:11:33;14.20;99.90
27226;DHT22;14732;51.074;3.788;2023-09-30T01:13:59;14.20;99.90
27226;DHT22;14732;51.074;3.788;2023-09-30T01:16:24;14.20;99.90
27226;DHT22;14732;51.074;3.788;2023-09-30T01:18:50;14.20;99.90
27226;DHT22;14732;51.074;3.788;2023-09-30T01:21:15;14.20;99.90
27226;DHT22;14732;51.074;3.788;2023-09-30T01:23:43;14.20;99.90
27226;DHT22;14732;51.074;3.788;2023-09-30T01:26:11;14.10;99.90
27226;DHT22;14732;51.074;3.788;2023-09-30T01:28:38;14.10;99.90
27226;DHT22;14732;51.074;3.788;2023-09-30T01:31:04;14.10;99.90
27226;DHT22;14732;51.074;3.788;2023-09-30T01:33:30;14.10;99.90
27226;DHT22;14732;51.074;3.788;2023-09-30T01:35:57;14.10;99.90
27226;DHT22;14732;51.074;3.788;2023-09-30T01:38:23;14.10;99.90
27226;DHT22;14732;51.074;3.788;2023-09-30T01:40:49;14.00;99.90
27226;DHT22;14732;51.074;3.788;2023-09-30T01:43:15;13.90;99.90
27226;DHT22;14732;51.074;3.788;2023-09-30T01:45:41;13.90;99.90
27226;DHT22;14732;51.074;3.788;2023-09-30T01:48:08;13.90;99.90
27226;DHT22;14732;51.074;3.788;2023-09-30T01:50:37;13.90;99.90
27226;DHT22;14732;51.074;3.788;2023-09-30T01:53:04;14.00;99.90
27226;DHT22;14732;51.074;3.788;2023-09-30T01:55:30;14.00;99.90
27226;DHT22;14732;51.074;3.788;2023-09-30T01:57:56;14.00;99.90
27226;DHT22;14732;51.074;3.788;2023-09-30T02:00:21;13.90;99.90
27226;DHT22;14732;51.074;3.788;2023-09-30T02:02:47;13.80;99.90
27226;DHT22;14732;51.074;3.788;2023-09-30T02:05:13;13.70;99.90
27226;DHT22;14732;51.074;3.788;2023-09-30T02:07:38;13.60;99.90
27226;DHT22;14732;51.074;3.788;2023-09-30T02:10:04;13.60;99.90
27226;DHT22;14732;51.074;3.788;2023-09-30T02:12:30;13.70;99.90
27226;DHT22;14732;51.074;3.788;2023-09-30T02:14:58;13.70;99.90
27226;DHT22;14732;51.074;3.788;2023-09-30T02:17:23;13.80;99.90
27226;DHT22;14732;51.074;3.788;2023-09-30T02:19:49;13.90;99.90
27226;DHT22;14732;51.074;3.788;2023-09-30T02:22:15;13.90;99.90
27226;DHT22;14732;51.074;3.788;2023-09-30T02:24:41;14.00;99.90
27226;DHT22;14732;51.074;3.788;2023-09-30T02:27:06;14.00;99.90
27226;DHT22;14732;51.074;3.788;2023-09-30T02:29:33;14.10;99.90
27226;DHT22;14732;51.074;3.788;2023-09-30T02:31:59;14.00;99.90
27226;DHT22;14732;51.074;3.788;2023-09-30T02:34:25;14.10;99.90
27226;DHT22;14732;51.074;3.788;2023-09-30T02:36:51;14.10;99.90
27226;DHT22;14732;51.074;3.788;2023-09-30T02:39:17;14.10;99.90
27226;DHT22;14732;51.074;3.788;2023-09-30T02:41:43;14.10;99.90
27226;DHT22;14732;51.074;3.788;2023-09-30T02:44:09;14.10;99.90
27226;DHT22;14732;51.074;3.788;2023-09-30T02:46:34;14.00;99.90
27226;DHT22;14732;51.074;3.788;2023-09-30T02:49:03;14.00;99.90
27226;DHT22;14732;51.074;3.788;2023-09-30T02:51:29;14.00;99.90
27226;DHT22;14732;51.074;3.788;2023-09-30T02:53:55;14.00;99.90
27226;DHT22;14732;51.074;3.788;2023-09-30T02:56:21;14.00;99.90
27226;DHT22;14732;51.074;3.788;2023-09-30T02:58:50;14.00;99.90
27226;DHT22;14732;51.074;3.788;2023-09-30T03:01:17;14.00;99.90
27226;DHT22;14732;51.074;3.788;2023-09-30T03:03:43;14.00;99.90
27226;DHT22;14732;51.074;3.788;2023-09-30T03:06:10;14.00;99.90
27226;DHT22;14732;51.074;3.788;2023-09-30T03:08:36;14.00;99.90
27226;DHT22;14732;51.074;3.788;2023-09-30T03:11:02;14.00;99.90
27226;DHT22;14732;51.074;3.788;2023-09-30T03:13:28;14.00;99.90
27226;DHT22;14732;51.074;3.788;2023-09-30T03:15:54;14.00;99.90
27226;DHT22;14732;51.074;3.788;2023-09-30T03:18:22;14.00;99.90
27226;DHT22;14732;51.074;3.788;2023-09-30T03:20:57;14.00;99.90
27226;DHT22;14732;51.074;3.788;2023-09-30T03:23:26;13.90;99.90
27226;DHT22;14732;51.074;3.788;2023-09-30T03:25:57;13.90;99.90
27226;DHT22;14732;51.074;3.788;2023-09-30T03:28:23;13.90;99.90
27226;DHT22;14732;51.074;3.788;2023-09-30T03:30:48;13.80;99.90
27226;DHT22;14732;51.074;3.788;2023-09-30T03:33:14;13.70;99.90
27226;DHT22;14732;51.074;3.788;2023-09-30T03:35:40;13.70;99.90
27226;DHT22;14732;51.074;3.788;2023-09-30T03:38:07;13.70;99.90
27226;DHT22;14732;51.074;3.788;2023-09-30T03:40:33;13.60;99.90
27226;DHT22;14732;51.074;3.788;2023-09-30T03:42:59;13.60;99.90
27226;DHT22;14732;51.074;3.788;2023-09-30T03:45:25;13.60;99.90
27226;DHT22;14732;51.074;3.788;2023-09-30T03:47:51;13.60;99.90
27226;DHT22;14732;51.074;3.788;2023-09-30T03:50:17;13.60;99.90
27226;DHT22;14732;51.074;3.788;2023-09-30T03:52:44;13.60;99.90
27226;DHT22;14732;51.074;3.788;2023-09-30T03:55:13;13.60;99.90
27226;DHT22;14732;51.074;3.788;2023-09-30T03:57:41;13.60;99.90
27226;DHT22;14732;51.074;3.788;2023-09-30T04:00:07;13.50;99.90
27226;DHT22;14732;51.074;3.788;2023-09-30T04:02:36;13.50;99.90
27226;DHT22;14732;51.074;3.788;2023-09-30T04:05:02;13.50;99.90
27226;DHT22;14732;51.074;3.788;2023-09-30T04:07:31;13.50;99.90
27226;DHT22;14732;51.074;3.788;2023-09-30T04:09:56;13.50;99.90
27226;DHT22;14732;51.074;3.788;2023-09-30T04:12:22;13.50;99.90
27226;DHT22;14732;51.074;3.788;2023-09-30T04:14:54;13.50;99.90
27226;DHT22;14732;51.074;3.788;2023-09-30T04:17:19;13.50;99.90
27226;DHT22;14732;51.074;3.788;2023-09-30T04:19:47;13.60;99.90
27226;DHT22;14732;51.074;3.788;2023-09-30T04:22:16;13.50;99.90
27226;DHT22;14732;51.074;3.788;2023-09-30T04:24:42;13.50;99.90
27226;DHT22;14732;51.074;3.788;2023-09-30T04:27:08;13.50;99.90
27226;DHT22;14732;51.074;3.788;2023-09-30T04:29:33;13.40;99.90
27226;DHT22;14732;51.074;3.788;2023-09-30T04:32:00;13.40;99.90
27226;DHT22;14732;51.074;3.788;2023-09-30T04:34:25;13.40;99.90
27226;DHT22;14732;51.074;3.788;2023-09-30T04:36:53;13.30;99.90
27226;DHT22;14732;51.074;3.788;2023-09-30T04:39:19;13.30;99.90
27226;DHT22;14732;51.074;3.788;2023-09-30T04:41:45;13.30;99.90
27226;DHT22;14732;51.074;3.788;2023-09-30T04:44:12;13.30;99.90
27226;DHT22;14732;51.074;3.788;2023-09-30T04:46:38;13.30;99.90
27226;DHT22;14732;51.074;3.788;2023-09-30T04:49:14;13.30;99.90
27226;DHT22;14732;51.074;3.788;2023-09-30T04:51:40;13.30;99.90
27226;DHT22;14732;51.074;3.788;2023-09-30T04:54:06;13.30;99.90
27226;DHT22;14732;51.074;3.788;2023-09-30T04:56:35;13.30;99.90
27226;DHT22;14732;51.074;3.788;2023-09-30T04:59:02;13.20;99.90
27226;DHT22;14732;51.074;3.788;2023-09-30T05:01:28;13.30;99.90
27226;DHT22;14732;51.074;3.788;2023-09-30T05:03:54;13.20;99.90
27226;DHT22;14732;51.074;3.788;2023-09-30T05:06:19;13.30;99.90
27226;DHT22;14732;51.074;3.788;2023-09-30T05:08:46;13.30;99.90
27226;DHT22;14732;51.074;3.788;2023-09-30T05:11:13;13.20;99.90
27226;DHT22;14732;51.074;3.788;2023-09-30T05:13:38;13.20;99.90
27226;DHT22;14732;51.074;3.788;2023-09-30T05:16:04;13.10;99.90
27226;DHT22;14732;51.074;3.788;2023-09-30T05:18:30;13.10;99.90
27226;DHT22;14732;51.074;3.788;2023-09-30T05:20:56;13.10;99.90
27226;DHT22;14732;51.074;3.788;2023-09-30T05:23:22;13.10;99.90
27226;DHT22;14732;51.074;3.788;2023-09-30T05:25:48;13.20;99.90
27226;DHT22;14732;51.074;3.788;2023-09-30T05:28:13;13.20;99.90
27226;DHT22;14732;51.074;3.788;2023-09-30T05:30:39;13.20;99.90
27226;DHT22;14732;51.074;3.788;2023-09-30T05:33:06;13.20;99.90
27226;DHT22;14732;51.074;3.788;2023-09-30T05:35:32;13.10;99.90
27226;DHT22;14732;51.074;3.788;2023-09-30T05:37:58;13.00;99.90
27226;DHT22;14732;51.074;3.788;2023-09-30T05:40:24;13.00;99.90
27226;DHT22;14732;51.074;3.788;2023-09-30T05:42:56;12.90;99.90
27226;DHT22;14732;51.074;3.788;2023-09-30T05:45:23;12.90;99.90
27226;DHT22;14732;51.074;3.788;2023-09-30T05:47:49;12.90;99.90
27226;DHT22;14732;51.074;3.788;2023-09-30T05:50:18;13.00;99.90
27226;DHT22;14732;51.074;3.788;2023-09-30T05:52:49;13.00;99.90
27226;DHT22;14732;51.074;3.788;2023-09-30T05:55:19;13.10;99.90
27226;DHT22;14732;51.074;3.788;2023-09-30T05:57:48;13.00;99.90
27226;DHT22;14732;51.074;3.788;2023-09-30T06:00:20;12.90;99.90
27226;DHT22;14732;51.074;3.788;2023-09-30T06:02:48;13.00;99.90
27226;DHT22;14732;51.074;3.788;2023-09-30T06:05:13;13.00;99.90
27226;DHT22;14732;51.074;3.788;2023-09-30T06:07:41;13.00;99.90
27226;DHT22;14732;51.074;3.788;2023-09-30T06:10:10;13.00;99.90
27226;DHT22;14732;51.074;3.788;2023-09-30T06:12:36;13.10;99.90
27226;DHT22;14732;51.074;3.788;2023-09-30T06:15:02;13.10;99.90
27226;DHT22;14732;51.074;3.788;2023-09-30T06:17:28;13.10;99.90
27226;DHT22;14732;51.074;3.788;2023-09-30T06:19:54;13.20;99.90
27226;DHT22;14732;51.074;3.788;2023-09-30T06:22:20;13.10;99.90
27226;DHT22;14732;51.074;3.788;2023-09-30T06:24:46;13.20;99.90
27226;DHT22;14732;51.074;3.788;2023-09-30T06:27:13;13.30;99.90
27226;DHT22;14732;51.074;3.788;2023-09-30T06:29:39;13.30;99.90
27226;DHT22;14732;51.074;3.788;2023-09-30T06:32:06;13.30;99.90
27226;DHT22;14732;51.074;3.788;2023-09-30T06:34:32;13.40;99.90
27226;DHT22;14732;51.074;3.788;2023-09-30T06:36:59;13.50;99.90
27226;DHT22;14732;51.074;3.788;2023-09-30T06:39:25;13.60;99.90
27226;DHT22;14732;51.074;3.788;2023-09-30T06:41:51;13.50;99.90
27226;DHT22;14732;51.074;3.788;2023-09-30T06:44:17;13.60;99.90
27226;DHT22;14732;51.074;3.788;2023-09-30T06:46:42;13.70;99.90
27226;DHT22;14732;51.074;3.788;2023-09-30T06:49:08;13.80;99.90
27226;DHT22;14732;51.074;3.788;2023-09-30T06:51:34;14.00;99.90
27226;DHT22;14732;51.074;3.788;2023-09-30T06:54:00;14.20;99.90
27226;DHT22;14732;51.074;3.788;2023-09-30T06:56:26;14.30;99.90
27226;DHT22;14732;51.074;3.788;2023-09-30T06:58:52;14.50;99.90
27226;DHT22;14732;51.074;3.788;2023-09-30T07:01:18;14.60;99.90
27226;DHT22;14732;51.074;3.788;2023-09-30T07:03:43;14.80;99.90
27226;DHT22;14732;51.074;3.788;2023-09-30T07:06:09;14.90;99.90
27226;DHT22;14732;51.074;3.788;2023-09-30T07:08:35;15.10;99.90
27226;DHT22;14732;51.074;3.788;2023-09-30T07:11:01;15.10;99.90
27226;DHT22;14732;51.074;3.788;2023-09-30T07:13:27;15.30;99.90
27226;DHT22;14732;51.074;3.788;2023-09-30T07:15:52;15.30;99.90
27226;DHT22;14732;51.074;3.788;2023-09-30T07:18:18;15.30;99.90
27226;DHT22;14732;51.074;3.788;2023-09-30T07:20:44;15.40;99.90
27226;DHT22;14732;51.074;3.788;2023-09-30T07:23:10;15.50;99.90
27226;DHT22;14732;51.074;3.788;2023-09-30T07:25:35;15.50;99.90
27226;DHT22;14732;51.074;3.788;2023-09-30T07:28:01;15.20;99.90
27226;DHT22;14732;51.074;3.788;2023-09-30T07:30:27;14.90;99.90
27226;DHT22;14732;51.074;3.788;2023-09-30T07:32:53;14.80;99.90
27226;DHT22;14732;51.074;3.788;2023-09-30T07:35:18;15.00;99.90
27226;DHT22;14732;51.074;3.788;2023-09-30T07:37:44;15.20;99.90
27226;DHT22;14732;51.074;3.788;2023-09-30T07:40:11;15.40;99.90
27226;DHT22;14732;51.074;3.788;2023-09-30T07:42:37;15.50;99.90
27226;DHT22;14732;51.074;3.788;2023-09-30T07:45:03;15.80;99.90
27226;DHT22;14732;51.074;3.788;2023-09-30T07:47:30;16.00;99.90
27226;DHT22;14732;51.074;3.788;2023-09-30T07:50:00;16.30;99.90
27226;DHT22;14732;51.074;3.788;2023-09-30T07:52:28;16.60;99.90
27226;DHT22;14732;51.074;3.788;2023-09-30T07:54:53;16.70;99.90
27226;DHT22;14732;51.074;3.788;2023-09-30T07:57:19;16.80;99.90
27226;DHT22;14732;51.074;3.788;2023-09-30T07:59:46;16.90;99.90
27226;DHT22;14732;51.074;3.788;2023-09-30T08:02:11;17.10;99.90
27226;DHT22;14732;51.074;3.788;2023-09-30T08:04:37;17.30;99.90
27226;DHT22;14732;51.074;3.788;2023-09-30T08:07:02;17.30;99.90
27226;DHT22;14732;51.074;3.788;2023-09-30T08:09:28;17.30;99.90
27226;DHT22;14732;51.074;3.788;2023-09-30T08:11:54;17.30;99.90
27226;DHT22;14732;51.074;3.788;2023-09-30T08:14:19;17.40;99.90
27226;DHT22;14732;51.074;3.788;2023-09-30T08:16:45;17.70;99.90
27226;DHT22;14732;51.074;3.788;2023-09-30T08:19:11;17.80;99.90
27226;DHT22;14732;51.074;3.788;2023-09-30T08:21:37;17.70;99.90
27226;DHT22;14732;51.074;3.788;2023-09-30T08:24:02;18.00;99.90
27226;DHT22;14732;51.074;3.788;2023-09-30T08:26:28;18.10;99.90
27226;DHT22;14732;51.074;3.788;2023-09-30T08:28:54;18.30;99.90
27226;DHT22;14732;51.074;3.788;2023-09-30T08:31:19;18.50;99.90
27226;DHT22;14732;51.074;3.788;2023-09-30T08:33:47;18.60;99.90
27226;DHT22;14732;51.074;3.788;2023-09-30T08:36:13;18.80;99.90
27226;DHT22;14732;51.074;3.788;2023-09-30T08:38:40;18.90;99.90
27226;DHT22;14732;51.074;3.788;2023-09-30T08:41:06;19.10;99.90
27226;DHT22;14732;51.074;3.788;2023-09-30T08:43:39;19.40;99.90
27226;DHT22;14732;51.074;3.788;2023-09-30T08:46:06;20.00;99.90
27226;DHT22;14732;51.074;3.788;2023-09-30T08:48:34;20.50;99.90
27226;DHT22;14732;51.074;3.788;2023-09-30T08:51:02;20.80;99.90
27226;DHT22;14732;51.074;3.788;2023-09-30T08:53:29;21.00;99.90
27226;DHT22;14732;51.074;3.788;2023-09-30T08:55:56;21.40;99.90
27226;DHT22;14732;51.074;3.788;2023-09-30T08:58:26;21.70;99.90
27226;DHT22;14732;51.074;3.788;2023-09-30T09:01:04;22.40;99.90
27226;DHT22;14732;51.074;3.788;2023-09-30T09:03:32;23.00;99.90
27226;DHT22;14732;51.074;3.788;2023-09-30T09:05:58;24.00;99.90
27226;DHT22;14732;51.074;3.788;2023-09-30T09:08:26;25.10;99.90
27226;DHT22;14732;51.074;3.788;2023-09-30T09:10:57;25.80;99.90
27226;DHT22;14732;51.074;3.788;2023-09-30T09:13:26;25.30;99.90
27226;DHT22;14732;51.074;3.788;2023-09-30T09:16:08;25.00;99.90
27226;DHT22;14732;51.074;3.788;2023-09-30T09:18:34;25.50;99.90
27226;DHT22;14732;51.074;3.788;2023-09-30T09:23:40;25.80;99.90
27226;DHT22;14732;51.074;3.788;2023-09-30T09:26:05;25.70;99.90
27226;DHT22;14732;51.074;3.788;2023-09-30T09:28:37;25.40;99.90
27226;DHT22;14732;51.074;3.788;2023-09-30T09:31:19;25.00;99.90
27226;DHT22;14732;51.074;3.788;2023-09-30T09:33:46;24.60;99.90
27226;DHT22;14732;51.074;3.788;2023-09-30T09:36:12;24.40;99.90
27226;DHT22;14732;51.074;3.788;2023-09-30T09:38:58;24.10;99.90
27226;DHT22;14732;51.074;3.788;2023-09-30T09:41:24;23.70;99.90
27226;DHT22;14732;51.074;3.788;2023-09-30T09:43:50;23.60;99.90
27226;DHT22;14732;51.074;3.788;2023-09-30T09:46:18;23.60;99.90
27226;DHT22;14732;51.074;3.788;2023-09-30T09:48:46;23.40;99.90
27226;DHT22;14732;51.074;3.788;2023-09-30T09:51:13;23.30;99.90
27226;DHT22;14732;51.074;3.788;2023-09-30T09:53:41;23.40;99.90
27226;DHT22;14732;51.074;3.788;2023-09-30T09:56:08;23.40;99.90
27226;DHT22;14732;51.074;3.788;2023-09-30T09:58:36;23.40;99.90
27226;DHT22;14732;51.074;3.788;2023-09-30T10:01:05;23.50;99.90
27226;DHT22;14732;51.074;3.788;2023-09-30T10:03:32;23.50;99.90
27226;DHT22;14732;51.074;3.788;2023-09-30T10:06:00;23.50;99.90
27226;DHT22;14732;51.074;3.788;2023-09-30T10:08:40;23.50;99.90
27226;DHT22;14732;51.074;3.788;2023-09-30T10:11:08;23.10;99.90
27226;DHT22;14732;51.074;3.788;2023-09-30T10:13:53;22.60;99.90
27226;DHT22;14732;51.074;3.788;2023-09-30T10:19:10;21.90;99.90
27226;DHT22;14732;51.074;3.788;2023-09-30T10:21:36;21.70;99.90
27226;DHT22;14732;51.074;3.788;2023-09-30T10:35:20;21.00;99.90
27226;DHT22;14732;51.074;3.788;2023-09-30T10:37:47;20.90;99.90
27226;DHT22;14732;51.074;3.788;2023-09-30T10:40:27;21.00;99.90
27226;DHT22;14732;51.074;3.788;2023-09-30T10:42:52;21.10;99.90
27226;DHT22;14732;51.074;3.788;2023-09-30T10:51:15;21.40;99.90
27226;DHT22;14732;51.074;3.788;2023-09-30T10:53:42;21.10;99.90
27226;DHT22;14732;51.074;3.788;2023-09-30T10:56:08;21.20;99.90
27226;DHT22;14732;51.074;3.788;2023-09-30T10:58:47;21.30;99.90
27226;DHT22;14732;51.074;3.788;2023-09-30T11:01:17;21.30;99.90
27226;DHT22;14732;51.074;3.788;2023-09-30T11:03:43;21.30;99.90
27226;DHT22;14732;51.074;3.788;2023-09-30T11:06:14;21.30;99.90
27226;DHT22;14732;51.074;3.788;2023-09-30T11:08:46;21.60;99.90
27226;DHT22;14732;51.074;3.788;2023-09-30T11:11:12;21.70;99.90
27226;DHT22;14732;51.074;3.788;2023-09-30T11:13:39;21.70;99.90
27226;DHT22;14732;51.074;3.788;2023-09-30T11:16:05;21.80;99.90
27226;DHT22;14732;51.074;3.788;2023-09-30T11:18:32;21.80;99.90
27226;DHT22;14732;51.074;3.788;2023-09-30T11:21:11;21.70;99.90
27226;DHT22;14732;51.074;3.788;2023-09-30T11:23:38;21.80;99.90
27226;DHT22;14732;51.074;3.788;2023-09-30T11:26:06;21.80;99.90
27226;DHT22;14732;51.074;3.788;2023-09-30T11:28:36;21.80;99.90
27226;DHT22;14732;51.074;3.788;2023-09-30T11:31:03;22.00;99.90
27226;DHT22;14732;51.074;3.788;2023-09-30T11:33:30;22.30;99.90
27226;DHT22;14732;51.074;3.788;2023-09-30T11:36:14;22.10;99.90
27226;DHT22;14732;51.074;3.788;2023-09-30T11:38:44;22.20;99.90
27226;DHT22;14732;51.074;3.788;2023-09-30T11:41:16;22.40;99.90
27226;DHT22;14732;51.074;3.788;2023-09-30T11:44:04;22.60;99.90
27226;DHT22;14732;51.074;3.788;2023-09-30T11:46:31;22.60;99.90
27226;DHT22;14732;51.074;3.788;2023-09-30T11:51:25;22.30;99.90
27226;DHT22;14732;51.074;3.788;2023-09-30T11:53:52;22.40;99.90
27226;DHT22;14732;51.074;3.788;2023-09-30T11:56:24;22.60;99.90
27226;DHT22;14732;51.074;3.788;2023-09-30T11:58:55;22.60;99.90
27226;DHT22;14732;51.074;3.788;2023-09-30T12:01:21;22.70;99.90
27226;DHT22;14732;51.074;3.788;2023-09-30T12:03:48;22.80;99.90
27226;DHT22;14732;51.074;3.788;2023-09-30T12:06:14;22.80;99.90
27226;DHT22;14732;51.074;3.788;2023-09-30T12:08:41;22.90;99.90
27226;DHT22;14732;51.074;3.788;2023-09-30T12:11:07;22.90;99.90
27226;DHT22;14732;51.074;3.788;2023-09-30T12:13:33;22.90;99.90
27226;DHT22;14732;51.074;3.788;2023-09-30T12:15:58;22.90;99.90
27226;DHT22;14732;51.074;3.788;2023-09-30T12:18:24;23.00;99.90
27226;DHT22;14732;51.074;3.788;2023-09-30T12:20:50;23.10;99.90
27226;DHT22;14732;51.074;3.788;2023-09-30T12:23:19;22.90;99.90
27226;DHT22;14732;51.074;3.788;2023-09-30T12:25:46;23.00;99.90
27226;DHT22;14732;51.074;3.788;2023-09-30T12:28:12;22.90;99.90
27226;DHT22;14732;51.074;3.788;2023-09-30T12:30:39;23.10;99.90
27226;DHT22;14732;51.074;3.788;2023-09-30T12:33:06;23.30;99.90
27226;DHT22;14732;51.074;3.788;2023-09-30T12:35:32;23.40;99.90
27226;DHT22;14732;51.074;3.788;2023-09-30T12:37:58;23.60;99.90
27226;DHT22;14732;51.074;3.788;2023-09-30T12:40:24;23.30;99.90
27226;DHT22;14732;51.074;3.788;2023-09-30T12:42:50;23.00;99.90
27226;DHT22;14732;51.074;3.788;2023-09-30T12:45:15;22.90;99.90
27226;DHT22;14732;51.074;3.788;2023-09-30T12:47:43;23.10;99.90
27226;DHT22;14732;51.074;3.788;2023-09-30T12:50:09;23.20;99.90
27226;DHT22;14732;51.074;3.788;2023-09-30T12:52:36;23.20;99.90
27226;DHT22;14732;51.074;3.788;2023-09-30T12:55:02;23.20;99.90
27226;DHT22;14732;51.074;3.788;2023-09-30T12:57:28;23.20;99.90
27226;DHT22;14732;51.074;3.788;2023-09-30T12:59:53;23.10;99.90
27226;DHT22;14732;51.074;3.788;2023-09-30T13:02:19;23.30;99.90
27226;DHT22;14732;51.074;3.788;2023-09-30T13:04:46;23.40;99.90
27226;DHT22;14732;51.074;3.788;2023-09-30T13:07:12;23.30;99.90
27226;DHT22;14732;51.074;3.788;2023-09-30T13:09:42;23.10;99.90
27226;DHT22;14732;51.074;3.788;2023-09-30T13:12:08;22.90;99.90
27226;DHT22;14732;51.074;3.788;2023-09-30T13:14:34;23.00;99.90
27226;DHT22;14732;51.074;3.788;2023-09-30T13:16:59;22.90;99.90
27226;DHT22;14732;51.074;3.788;2023-09-30T13:19:26;23.10;99.90
27226;DHT22;14732;51.074;3.788;2023-09-30T13:21:52;23.20;99.90
27226;DHT22;14732;51.074;3.788;2023-09-30T13:24:22;22.90;99.90
27226;DHT22;14732;51.074;3.788;2023-09-30T13:26:48;23.20;99.90
27226;DHT22;14732;51.074;3.788;2023-09-30T13:29:15;23.20;99.90
27226;DHT22;14732;51.074;3.788;2023-09-30T13:31:42;23.10;99.90
27226;DHT22;14732;51.074;3.788;2023-09-30T13:34:08;23.00;99.90
27226;DHT22;14732;51.074;3.788;2023-09-30T13:36:34;23.20;99.90
27226;DHT22;14732;51.074;3.788;2023-09-30T13:38:59;23.40;99.90
27226;DHT22;14732;51.074;3.788;2023-09-30T13:41:26;23.30;99.90
27226;DHT22;14732;51.074;3.788;2023-09-30T13:43:52;23.20;99.90
27226;DHT22;14732;51.074;3.788;2023-09-30T13:46:18;23.00;99.90
27226;DHT22;14732;51.074;3.788;2023-09-30T13:48:43;22.60;99.90
27226;DHT22;14732;51.074;3.788;2023-09-30T13:51:10;22.60;99.90
27226;DHT22;14732;51.074;3.788;2023-09-30T13:53:38;22.70;99.90
27226;DHT22;14732;51.074;3.788;2023-09-30T13:56:04;22.90;99.90
27226;DHT22;14732;51.074;3.788;2023-09-30T13:58:32;22.90;99.90
27226;DHT22;14732;51.074;3.788;2023-09-30T14:00:57;22.90;99.90
27226;DHT22;14732;51.074;3.788;2023-09-30T14:03:23;22.80;99.90
27226;DHT22;14732;51.074;3.788;2023-09-30T14:05:52;22.90;99.90
27226;DHT22;14732;51.074;3.788;2023-09-30T14:08:21;22.90;99.90
27226;DHT22;14732;51.074;3.788;2023-09-30T14:10:47;23.10;99.90
27226;DHT22;14732;51.074;3.788;2023-09-30T14:13:13;23.00;99.90
27226;DHT22;14732;51.074;3.788;2023-09-30T14:15:40;22.90;99.90
27226;DHT22;14732;51.074;3.788;2023-09-30T14:18:06;23.00;99.90
27226;DHT22;14732;51.074;3.788;2023-09-30T14:20:32;23.20;99.90
27226;DHT22;14732;51.074;3.788;2023-09-30T14:22:59;23.20;99.90
27226;DHT22;14732;51.074;3.788;2023-09-30T14:25:24;22.80;99.90
27226;DHT22;14732;51.074;3.788;2023-09-30T14:27:50;22.70;99.90
27226;DHT22;14732;51.074;3.788;2023-09-30T14:30:16;22.50;99.90
27226;DHT22;14732;51.074;3.788;2023-09-30T14:32:42;22.60;99.90
27226;DHT22;14732;51.074;3.788;2023-09-30T14:35:08;22.60;99.90
27226;DHT22;14732;51.074;3.788;2023-09-30T14:37:35;22.80;99.90
27226;DHT22;14732;51.074;3.788;2023-09-30T14:40:02;22.90;99.90
27226;DHT22;14732;51.074;3.788;2023-09-30T14:42:38;22.90;99.90
27226;DHT22;14732;51.074;3.788;2023-09-30T14:45:05;22.90;99.90
27226;DHT22;14732;51.074;3.788;2023-09-30T14:47:31;22.90;99.90
27226;DHT22;14732;51.074;3.788;2023-09-30T14:49:56;22.90;99.90
27226;DHT22;14732;51.074;3.788;2023-09-30T14:52:22;22.90;99.90
27226;DHT22;14732;51.074;3.788;2023-09-30T14:54:47;22.80;99.90
27226;DHT22;14732;51.074;3.788;2023-09-30T14:57:13;22.60;99.90
27226;DHT22;14732;51.074;3.788;2023-09-30T14:59:41;22.40;99.90
27226;DHT22;14732;51.074;3.788;2023-09-30T15:02:07;22.50;99.90
27226;DHT22;14732;51.074;3.788;2023-09-30T15:04:36;22.40;99.90
27226;DHT22;14732;51.074;3.788;2023-09-30T15:07:02;22.30;99.90
27226;DHT22;14732;51.074;3.788;2023-09-30T15:09:28;22.30;99.90
27226;DHT22;14732;51.074;3.788;2023-09-30T15:11:53;22.30;99.90
27226;DHT22;14732;51.074;3.788;2023-09-30T15:14:19;22.10;99.90
27226;DHT22;14732;51.074;3.788;2023-09-30T15:16:45;22.00;99.90
27226;DHT22;14732;51.074;3.788;2023-09-30T15:19:11;22.00;99.90
27226;DHT22;14732;51.074;3.788;2023-09-30T15:21:36;22.10;99.90
27226;DHT22;14732;51.074;3.788;2023-09-30T15:24:03;22.10;99.90
27226;DHT22;14732;51.074;3.788;2023-09-30T15:26:30;22.10;99.90
27226;DHT22;14732;51.074;3.788;2023-09-30T15:28:56;22.20;99.90
27226;DHT22;14732;51.074;3.788;2023-09-30T15:31:30;22.20;99.90
27226;DHT22;14732;51.074;3.788;2023-09-30T15:33:56;22.10;99.90
27226;DHT22;14732;51.074;3.788;2023-09-30T15:36:22;22.00;99.90
27226;DHT22;14732;51.074;3.788;2023-09-30T15:38:47;21.70;99.90
27226;DHT22;14732;51.074;3.788;2023-09-30T15:41:14;21.10;99.90
27226;DHT22;14732;51.074;3.788;2023-09-30T15:43:41;21.20;99.90
27226;DHT22;14732;51.074;3.788;2023-09-30T15:46:09;21.30;99.90
27226;DHT22;14732;51.074;3.788;2023-09-30T15:48:35;21.40;99.90
27226;DHT22;14732;51.074;3.788;2023-09-30T15:51:01;21.40;99.90
27226;DHT22;14732;51.074;3.788;2023-09-30T15:53:26;21.50;99.90